Terminal Aerodrome Forecast
Issued by NWS Cleveland, OH

Home | Current Version | Previous Version | Graphics & Text | Print | Product List | Glossary Off
Versions: 1 2 3 4 5 6 7 8 9 10 11 12 13

000
FTUS41 KCLE 231746
TAFYNG
TAF
KYNG 231746Z 2318/2418 15012G20KT P6SM -SHRA SCT035 OVC060
     FM231900 14015KT 6SM -SHRA BKN020 OVC040 WS020/15050KT
      TEMPO 2319/2322 14015G25KT 4SM RA OVC010
     FM240300 22015G25KT P6SM -SHRA OVC015
     FM240800 21012KT P6SM OVC025
     FM241500 21015G25KT P6SM VCSH BKN030=

USA.gov is the U.S. government's official web portal to all federal, state and local government web resources and services.